Time;durP1;ratioP1;P1;durP2;ratioP2;P2;SDS_P1;SDS_P2;PMS_P1;PMS_P2;Temp;Humidity;BMP_temperature;BMP_pressure;BME280_temperature;BME280_humidity;BME280_pressure;Samples;Min_cycle;Max_cycle;Signal;HPM_P1;HPM_P2
2021/04/23 00:01:47;;;;;;;8.10;2.33;;;;;;;;;;5024392;28;20467;-89
2021/04/23 00:04:14;;;;;;;5.30;2.37;;;;;;;;;;5023859;28;20440;-90
2021/04/23 00:06:49;;;;;;;5.70;2.47;;;3.20;99.90;;;;;;5022871;28;20447;-89
2021/04/23 00:09:20;;;;;;;4.17;1.80;;;3.30;99.90;;;;;;5019774;28;20467;-90
2021/04/23 00:11:55;;;;;;;3.03;1.93;;;3.20;99.90;;;;;;5020122;28;20487;-87
2021/04/23 00:14:24;;;;;;;4.33;1.60;;;3.20;99.90;;;;;;5027718;28;20473;-89
2021/04/23 00:16:51;;;;;;;4.67;1.70;;;;;;;;;;5030519;28;20541;-89
2021/04/23 00:19:21;;;;;;;6.87;1.80;;;3.10;99.90;;;;;;5031985;28;20443;-89
2021/04/23 00:24:14;;;;;;;3.50;1.90;;;;;;;;;;5034898;23;20511;-89
2021/04/23 00:26:41;;;;;;;4.63;1.73;;;3.00;99.90;;;;;;5027269;23;20233;-91
2021/04/23 00:29:12;;;;;;;3.80;1.60;;;2.90;99.90;;;;;;5044769;23;20502;-89
2021/04/23 00:31:39;;;;;;;7.77;2.20;;;3.00;99.90;;;;;;5035262;28;20563;-90
2021/04/23 00:34:06;;;;;;;4.33;1.70;;;3.00;99.90;;;;;;5059965;23;20493;-88
2021/04/23 00:36:32;;;;;;;5.03;1.80;;;;;;;;;;5053362;28;20474;-89
2021/04/23 00:38:59;;;;;;;3.00;1.80;;;3.60;99.90;;;;;;5048658;28;20470;-89
2021/04/23 00:41:30;;;;;;;4.53;1.90;;;2.90;99.90;;;;;;5049331;28;20459;-91
2021/04/23 00:43:57;;;;;;;6.03;2.00;;;3.00;99.90;;;;;;5054769;23;20447;-91
2021/04/23 00:46:25;;;;;;;1.77;1.67;;;3.00;99.90;;;;;;5028794;28;20491;-89
2021/04/23 00:48:52;;;;;;;4.77;2.50;;;;;;;;;;5028210;28;20452;-88
2021/04/23 00:51:22;;;;;;;5.90;2.80;;;2.80;99.90;;;;;;5029717;28;20459;-90
2021/04/23 00:53:51;;;;;;;4.43;1.97;;;2.90;99.90;;;;;;5030071;28;20440;-88
2021/04/23 00:56:21;;;;;;;6.10;2.10;;;2.90;99.90;;;;;;5029659;28;20457;-87
2021/04/23 00:58:48;;;;;;;4.10;1.80;;;2.90;99.90;;;;;;5028496;28;20444;-89
2021/04/23 01:01:21;;;;;;;5.20;1.93;;;2.80;99.90;;;;;;5028635;28;20432;-88
2021/04/23 01:03:50;;;;;;;3.77;2.00;;;2.80;99.90;;;;;;5029013;28;20444;-89
2021/04/23 01:06:19;;;;;;;4.83;2.10;;;2.70;99.90;;;;;;5026190;28;20455;-88
2021/04/23 01:08:46;;;;;;;8.73;2.20;;;;;;;;;;5025061;28;20428;-90
2021/04/23 01:11:12;;;;;;;3.17;1.80;;;;;;;;;;5025889;28;20789;-88
2021/04/23 01:13:39;;;;;;;2.17;1.70;;;3.40;99.90;;;;;;5024915;28;20558;-89
2021/04/23 01:16:08;;;;;;;4.13;1.50;;;2.80;99.90;;;;;;5025372;28;20490;-89
2021/04/23 01:18:35;;;;;;;5.37;2.50;;;;;;;;;;5024682;28;20441;-90
2021/04/23 01:21:05;;;;;;;5.90;2.60;;;2.80;99.90;;;;;;5024690;28;20432;-89
2021/04/23 01:23:32;;;;;;;7.60;2.23;;;2.70;99.90;;;;;;5025158;28;20452;-87
2021/04/23 01:25:58;;;;;;;8.80;2.10;;;;;;;;;;5027401;28;20444;-88
2021/04/23 01:28:25;;;;;;;3.97;2.00;;;2.70;99.90;;;;;;5026504;28;20521;-91
2021/04/23 01:30:52;;;;;;;4.93;2.37;;;;;;;;;;5026847;28;20460;-87
2021/04/23 01:33:18;;;;;;;6.50;2.63;;;2.60;99.90;;;;;;5028665;28;20496;-89
2021/04/23 01:35:45;;;;;;;9.43;2.20;;;;;;;;;;5027483;28;20478;-90
2021/04/23 01:38:13;;;;;;;5.60;2.10;;;2.60;99.90;;;;;;5026040;28;20436;-89
2021/04/23 01:40:39;;;;;;;6.93;2.10;;;;;;;;;;5025984;28;20440;-89
2021/04/23 01:43:06;;;;;;;5.90;1.80;;;;;;;;;;5026034;28;20514;-88
2021/04/23 01:45:32;;;;;;;2.77;2.00;;;;;;;;;;5026285;28;20484;-88
2021/04/23 01:47:59;;;;;;;2.50;1.70;;;;;;;;;;5026889;28;20823;-90
2021/04/23 01:50:26;;;;;;;5.10;1.80;;;;;;;;;;5025875;28;20456;-89
2021/04/23 01:52:52;;;;;;;6.90;2.67;;;;;;;;;;5025827;28;20907;-89
2021/04/23 01:55:22;;;;;;;6.03;2.20;;;2.30;99.90;;;;;;5020864;28;20456;-90
2021/04/23 01:57:49;;;;;;;5.97;2.33;;;;;;;;;;5017580;28;20939;-88
2021/04/23 02:00:22;;;;;;;4.27;1.87;;;2.40;99.90;;;;;;5017503;28;20463;-88
2021/04/23 02:02:50;;;;;;;4.13;2.13;;;2.20;99.90;;;;;;5017988;28;20448;-87
2021/04/23 02:05:17;;;;;;;10.67;2.20;;;1.80;99.90;;;;;;5018376;28;20469;-88
2021/04/23 02:07:43;;;;;;;5.47;2.33;;;;;;;;;;5017366;28;20449;-88
2021/04/23 02:10:13;;;;;;;3.83;1.93;;;2.00;99.90;;;;;;5017083;28;20448;-87
2021/04/23 02:12:40;;;;;;;7.93;3.10;;;2.30;99.90;;;;;;5017141;28;20496;-88
2021/04/23 02:15:10;;;;;;;3.43;2.07;;;2.30;99.90;;;;;;5016688;28;20444;-89
2021/04/23 02:17:36;;;;;;;3.70;2.30;;;;;;;;;;5018048;28;20448;-89
2021/04/23 02:20:07;;;;;;;7.70;1.87;;;2.20;99.90;;;;;;5016809;28;20447;-88
2021/04/23 02:22:34;;;;;;;6.10;2.60;;;;;;;;;;5016526;28;20444;-88
2021/04/23 02:25:01;;;;;;;3.10;1.73;;;;;;;;;;5016216;28;20502;-88
2021/04/23 02:27:27;;;;;;;4.60;2.57;;;;;;;;;;5017460;28;20924;-87
2021/04/23 02:29:55;;;;;;;4.27;2.33;;;2.10;99.90;;;;;;5017808;28;20436;-88
2021/04/23 02:32:21;;;;;;;7.27;2.80;;;;;;;;;;5017289;28;20862;-90
2021/04/23 02:34:48;;;;;;;4.00;2.03;;;;;;;;;;5017201;28;20452;-88
2021/04/23 02:37:15;;;;;;;6.33;2.30;;;;;;;;;;5016077;28;20460;-89
2021/04/23 02:39:42;;;;;;;7.40;2.40;;;;;;;;;;5015636;28;20459;-90
2021/04/23 02:42:08;;;;;;;6.37;2.37;;;1.90;99.90;;;;;;5016568;28;20448;-89
2021/04/23 02:44:35;;;;;;;3.73;1.80;;;;;;;;;;5016190;28;20483;-87
2021/04/23 02:47:03;;;;;;;4.70;1.83;;;1.80;99.90;;;;;;5016833;28;20464;-90
2021/04/23 02:49:29;;;;;;;12.27;2.63;;;;;;;;;;5015824;28;20456;-89
2021/04/23 02:51:56;;;;;;;2.97;1.90;;;;;;;;;;5016492;28;20499;-89
2021/04/23 02:54:23;;;;;;;3.73;2.17;;;;;;;;;;5014666;28;20479;-91
2021/04/23 02:56:50;;;;;;;6.13;2.17;;;;;;;;;;5015946;28;20540;-88
2021/04/23 02:59:17;;;;;;;7.13;2.17;;;1.80;99.90;;;;;;5016459;28;20479;-87
2021/04/23 03:01:46;;;;;;;6.20;2.90;;;1.80;99.90;;;;;;5015548;28;20498;-87
2021/04/23 03:04:13;;;;;;;4.80;2.37;;;1.80;99.90;;;;;;5017133;28;20493;-89
2021/04/23 03:06:39;;;;;;;6.00;1.97;;;;;;;;;;5016242;28;20444;-88
2021/04/23 03:09:07;;;;;;;2.67;1.83;;;1.70;99.90;;;;;;5014493;28;20455;-88
2021/04/23 03:11:35;;;;;;;5.30;2.70;;;1.70;99.90;;;;;;5016615;28;20491;-88
2021/04/23 03:14:02;;;;;;;4.90;2.10;;;;;;;;;;5016113;28;20457;-88
2021/04/23 03:16:29;;;;;;;3.90;2.20;;;1.70;99.90;;;;;;5015888;28;20506;-90
2021/04/23 03:18:56;;;;;;;5.10;2.30;;;;;;;;;;5015939;28;20453;-87
2021/04/23 03:21:25;;;;;;;3.10;2.13;;;1.70;99.90;;;;;;5015838;28;20475;-88
2021/04/23 03:23:52;;;;;;;2.80;2.07;;;;;;;;;;5015029;28;20452;-89
2021/04/23 03:26:20;;;;;;;5.10;2.60;;;1.60;99.90;;;;;;5016345;28;20444;-92
2021/04/23 03:28:48;;;;;;;8.40;2.80;;;1.60;99.90;;;;;;5016875;28;20436;-88
2021/04/23 03:31:15;;;;;;;6.20;2.77;;;;;;;;;;5016140;28;20444;-88
2021/04/23 03:33:42;;;;;;;5.70;2.50;;;1.60;99.90;;;;;;5015900;28;20476;-88
2021/04/23 03:36:10;;;;;;;6.33;2.90;;;2.20;99.90;;;;;;5014677;28;20491;-89
2021/04/23 03:38:39;;;;;;;4.00;2.10;;;1.50;99.90;;;;;;5013964;28;20444;-88
2021/04/23 03:41:09;;;;;;;3.00;2.23;;;1.50;99.90;;;;;;5014326;28;20980;-88
2021/04/23 03:43:35;;;;;;;9.80;2.70;;;;;;;;;;5014420;28;20492;-88
2021/04/23 03:46:02;;;;;;;8.73;3.03;;;;;;;;;;5014100;28;20548;-88
2021/04/23 03:48:29;;;;;;;4.70;2.57;;;;;;;;;;5014826;28;20463;-87
2021/04/23 03:50:55;;;;;;;6.40;2.97;;;0.90;99.90;;;;;;5015388;28;20444;-87
2021/04/23 03:53:22;;;;;;;5.23;2.40;;;;;;;;;;5013570;28;20456;-90
2021/04/23 03:55:52;;;;;;;5.83;2.90;;;2.00;99.90;;;;;;5014288;28;20978;-87
2021/04/23 03:58:21;;;;;;;10.57;3.20;;;1.40;99.90;;;;;;5014870;28;20444;-88
2021/04/23 04:00:51;;;;;;;3.20;2.10;;;1.30;99.90;;;;;;5014430;28;20460;-88
2021/04/23 04:03:18;;;;;;;3.13;2.47;;;0.40;99.90;;;;;;5015567;28;20995;-89
2021/04/23 04:05:45;;;;;;;8.73;3.50;;;1.30;99.90;;;;;;5014932;28;20463;-88
2021/04/23 04:08:12;;;;;;;5.33;2.60;;;;;;;;;;5013307;28;20456;-90
2021/04/23 04:10:39;;;;;;;4.83;2.03;;;;;;;;;;5017384;28;20526;-91
2021/04/23 04:13:07;;;;;;;7.63;3.60;;;1.10;99.90;;;;;;5015896;28;20453;-88
2021/04/23 04:15:35;;;;;;;9.80;3.93;;;1.20;99.90;;;;;;5016344;28;20456;-92
2021/04/23 04:18:01;;;;;;;11.87;4.00;;;;;;;;;;5014977;28;20444;-88
2021/04/23 04:20:33;;;;;;;6.53;2.73;;;1.20;99.90;;;;;;5013197;28;20448;-87
2021/04/23 04:22:59;;;;;;;8.77;3.23;;;;;;;;;;5008917;28;20535;-89
2021/04/23 04:25:28;;;;;;;6.60;2.77;;;1.30;99.90;;;;;;5012703;28;20448;-86
2021/04/23 04:27:55;;;;;;;3.17;2.07;;;1.30;99.90;;;;;;5009734;28;20565;-90
2021/04/23 04:30:24;;;;;;;6.57;2.43;;;1.30;99.90;;;;;;5012559;28;20445;-91
2021/04/23 04:32:51;;;;;;;4.33;2.50;;;;;;;;;;5014812;28;20448;-88
2021/04/23 04:35:18;;;;;;;7.13;2.87;;;;;;;;;;5020309;28;20440;-89
2021/04/23 04:37:47;;;;;;;6.87;3.43;;;1.30;99.90;;;;;;5019485;28;20452;-90
2021/04/23 04:40:15;;;;;;;12.00;3.27;;;1.50;99.90;;;;;;5017594;28;20447;-89
2021/04/23 04:42:42;;;;;;;4.30;3.10;;;;;;;;;;5017005;28;20919;-86
2021/04/23 04:45:12;;;;;;;5.73;2.90;;;1.30;99.90;;;;;;5015237;28;20526;-88
2021/04/23 04:47:40;;;;;;;8.60;3.40;;;1.50;99.90;;;;;;5018513;28;20445;-89
2021/04/23 04:50:12;;;;;;;3.27;2.40;;;1.50;99.90;;;;;;5020242;28;20444;-88
2021/04/23 04:52:42;;;;;;;4.03;2.00;;;1.50;99.90;;;;;;5017437;23;20489;-89
2021/04/23 04:55:16;;;;;;;8.33;2.67;;;1.60;99.90;;;;;;5006034;28;20438;-87
2021/04/23 04:57:42;;;;;;;4.70;2.30;;;;;;;;;;5009729;28;20449;-88
2021/04/23 05:00:15;;;;;;;6.23;2.70;;;1.70;99.90;;;;;;5049108;23;20491;-89
2021/04/23 05:02:43;;;;;;;4.63;2.50;;;1.70;99.90;;;;;;4999011;28;20568;-88
2021/04/23 05:05:13;;;;;;;5.20;2.40;;;1.70;99.90;;;;;;5051553;23;20509;-87
2021/04/23 05:07:54;;;;;;;6.33;2.97;;;1.90;99.90;;;;;;5052903;23;20436;-88
2021/04/23 05:10:21;;;;;;;9.63;2.80;;;;;;;;;;5044816;28;20474;-88
2021/04/23 05:12:50;;;;;;;4.90;3.10;;;;;;;;;;5046774;23;20500;-88
2021/04/23 05:15:19;;;;;;;3.67;2.43;;;2.20;99.90;;;;;;5033192;23;20497;-87
2021/04/23 05:17:47;;;;;;;7.27;3.07;;;2.30;99.90;;;;;;5014629;28;20451;-87
2021/04/23 05:20:15;;;;;;;5.53;2.20;;;2.50;99.90;;;;;;5032160;28;20454;-87
2021/04/23 05:22:42;;;;;;;7.63;2.37;;;;;;;;;;5026284;28;20557;-89
2021/04/23 05:25:11;;;;;;;7.63;2.90;;;2.90;99.90;;;;;;5031175;28;20869;-88
2021/04/23 05:27:38;;;;;;;5.77;2.60;;;;;;;;;;5032565;28;20439;-88
2021/04/23 05:30:12;;;;;;;7.70;3.20;;;3.10;99.90;;;;;;5035794;23;20496;-88
2021/04/23 05:32:39;;;;;;;3.07;2.70;;;3.50;99.90;;;;;;5034652;23;20488;-87
2021/04/23 05:35:10;;;;;;;5.90;3.00;;;3.80;99.90;;;;;;5031266;28;20487;-87
2021/04/23 05:37:37;;;;;;;8.77;2.90;;;;;;;;;;5027853;28;20479;-87
2021/04/23 05:40:05;;;;;;;5.43;2.47;;;4.60;99.90;;;;;;5029388;28;20463;-89
2021/04/23 05:42:32;;;;;;;6.57;2.70;;;;;;;;;;5027654;28;20488;-87
2021/04/23 05:44:59;;;;;;;6.90;2.93;;;5.90;99.90;;;;;;5034121;23;20520;-88
2021/04/23 05:47:29;;;;;;;14.73;4.17;;;6.50;99.90;;;;;;5003467;23;20462;-89
2021/04/23 05:49:57;;;;;;;7.47;4.17;;;7.00;99.90;;;;;;5053657;23;20562;-89
2021/04/23 05:52:25;;;;;;;6.17;3.33;;;;;;;;;;5037343;23;20488;-87
2021/04/23 05:54:52;;;;;;;5.60;3.43;;;;;;;;;;5027191;28;20563;-89
2021/04/23 05:57:18;;;;;;;6.70;3.70;;;;;;;;;;5028665;28;20464;-89
2021/04/23 05:59:45;;;;;;;9.77;4.00;;;;;;;;;;5031237;28;20420;-89
2021/04/23 06:02:15;;;;;;;4.70;3.07;;;8.60;95.40;;;;;;5028434;23;20485;-88
2021/04/23 06:04:42;;;;;;;9.63;4.27;;;8.70;94.80;;;;;;5039960;23;20506;-88
2021/04/23 06:07:09;;;;;;;6.10;3.83;;;;;;;;;;5044753;28;20454;-88
2021/04/23 06:09:40;;;;;;;8.03;4.40;;;;;;;;;;5056665;23;20451;-87
2021/04/23 06:12:06;;;;;;;11.13;4.23;;;;;;;;;;5031104;28;20479;-90
2021/04/23 06:14:33;;;;;;;9.03;4.13;;;;;;;;;;5032051;28;20440;-88
2021/04/23 06:17:04;;;;;;;14.60;4.53;;;;;;;;;;5103565;23;20479;-88
2021/04/23 06:19:31;;;;;;;9.77;4.03;;;;;;;;;;5040006;23;20578;-87
2021/04/23 06:21:57;;;;;;;9.60;4.20;;;;;;;;;;5027616;28;20476;-87
2021/04/23 06:24:24;;;;;;;10.83;4.70;;;;;;;;;;5043670;23;20563;-87
2021/04/23 06:26:52;;;;;;;10.47;4.40;;;10.20;90.60;;;;;;5048774;28;20443;-88
2021/04/23 06:29:21;;;;;;;10.90;4.07;;;10.20;90.50;;;;;;5044808;23;20522;-87
2021/04/23 06:31:48;;;;;;;15.13;3.90;;;;;;;;;;5028200;28;20463;-88
2021/04/23 06:34:15;;;;;;;8.10;3.60;;;;;;;;;;5031519;28;20432;-88
2021/04/23 06:36:41;;;;;;;18.03;3.70;;;;;;;;;;5027651;28;20460;-87
2021/04/23 06:39:14;;;;;;;8.53;4.00;;;11.30;86.00;;;;;;5015249;28;20966;-89
2021/04/23 06:41:41;;;;;;;11.87;4.00;;;;;;;;;;5046538;23;20487;-89
2021/04/23 06:44:08;;;;;;;8.20;4.33;;;;;;;;;;5046034;28;20450;-88
2021/04/23 06:46:35;;;;;;;6.60;4.27;;;;;;;;;;5050714;28;20459;-88
2021/04/23 06:49:02;;;;;;;12.40;4.27;;;;;;;;;;5052186;23;20506;-88
2021/04/23 06:51:28;;;;;;;7.33;3.70;;;;;;;;;;5031428;28;20456;-88
2021/04/23 06:53:55;;;;;;;6.33;3.80;;;;;;;;;;5031048;28;20437;-89
2021/04/23 06:56:21;;;;;;;8.93;4.20;;;;;;;;;;5023607;28;20432;-88
2021/04/23 06:58:48;;;;;;;7.13;4.07;;;;;;;;;;5038684;23;20463;-88
2021/04/23 07:01:16;;;;;;;9.97;3.60;;;;;;;;;;5047245;28;20452;-88
2021/04/23 07:03:43;;;;;;;8.40;4.17;;;;;;;;;;5061044;23;20484;-86
2021/04/23 07:06:10;;;;;;;12.93;4.40;;;11.50;85.50;;;;;;5042158;23;20566;-88
2021/04/23 07:08:37;;;;;;;9.97;3.57;;;;;;;;;;5036877;23;20488;-88
2021/04/23 07:11:04;;;;;;;11.27;3.97;;;;;;;;;;5028007;28;20471;-88
2021/04/23 07:13:32;;;;;;;11.53;4.50;;;;;;;;;;5042389;23;20502;-87
2021/04/23 07:15:59;;;;;;;16.07;4.43;;;;;;;;;;5041688;23;20501;-89
2021/04/23 07:18:27;;;;;;;8.00;3.80;;;;;;;;;;5031103;28;20566;-87
2021/04/23 07:20:54;;;;;;;7.90;3.90;;;;;;;;;;5027951;28;20472;-89
2021/04/23 07:23:20;;;;;;;13.40;4.77;;;;;;;;;;5027981;28;20423;-89
2021/04/23 07:25:47;;;;;;;8.63;4.30;;;12.40;94.40;;;;;;4986958;28;20934;-94
2021/04/23 07:28:13;;;;;;;10.60;4.50;;;;;;;;;;4979571;28;20487;-89
2021/04/23 07:30:40;;;;;;;6.53;4.23;;;;;;;;;;4977590;28;20481;-88
2021/04/23 07:33:09;;;;;;;8.13;4.37;;;12.60;79.00;;;;;;4976934;28;20486;-90
2021/04/23 07:35:37;;;;;;;8.97;3.93;;;12.60;80.20;;;;;;4978655;28;20470;-92
2021/04/23 07:38:03;;;;;;;8.37;4.50;;;;;;;;;;4976268;28;20461;-90
2021/04/23 07:40:31;;;;;;;8.60;4.80;;;13.20;79.80;;;;;;4973666;28;20533;-91
2021/04/23 07:43:00;;;;;;;7.80;4.07;;;;;;;;;;4979478;28;20454;-90
2021/04/23 07:45:26;;;;;;;9.97;4.60;;;;;;;;;;5016299;28;20448;-93
2021/04/23 07:47:53;;;;;;;5.53;3.73;;;;;;;;;;5015684;28;20449;-91
2021/04/23 07:50:22;;;;;;;7.70;3.60;;;14.30;73.80;;;;;;5016737;28;20456;-91
2021/04/23 07:52:51;;;;;;;4.93;3.00;;;14.40;74.50;;;;;;5014583;28;20483;-89
2021/04/23 07:55:17;;;;;;;6.80;3.63;;;;;;;;;;5016748;28;20963;-92
2021/04/23 07:57:44;;;;;;;9.33;4.70;;;;;;;;;;5016177;28;20429;-91
2021/04/23 08:00:12;;;;;;;10.80;4.20;;;14.80;68.90;;;;;;5017212;28;20444;-91
2021/04/23 08:02:40;;;;;;;8.33;4.97;;;;;;;;;;5017412;28;20467;-92
2021/04/23 08:05:08;;;;;;;8.30;4.33;;;15.50;70.80;;;;;;5016072;28;20464;-92
2021/04/23 08:07:34;;;;;;;6.33;4.30;;;15.80;85.50;;;;;;4996913;28;20444;-92
2021/04/23 08:10:02;;;;;;;9.23;5.00;;;15.80;94.40;;;;;;4996255;28;20477;-89
2021/04/23 08:12:28;;;;;;;8.20;5.13;;;;;;;;;;4996610;28;20523;-89
2021/04/23 08:14:54;;;;;;;14.47;5.50;;;15.80;82.40;;;;;;4999421;28;20497;-91
2021/04/23 08:17:21;;;;;;;9.47;5.00;;;;;;;;;;4998642;28;20453;-91
2021/04/23 08:19:48;;;;;;;11.70;5.20;;;16.00;83.30;;;;;;4998663;28;20456;-88
2021/04/23 08:22:14;;;;;;;9.13;5.67;;;15.60;92.00;;;;;;4998925;28;20457;-91
2021/04/23 08:24:41;;;;;;;8.43;5.40;;;;;;;;;;4999946;28;20460;-92
2021/04/23 08:27:08;;;;;;;6.20;5.00;;;15.50;85.80;;;;;;4998474;28;20453;-91
2021/04/23 08:29:34;;;;;;;8.63;5.20;;;15.20;74.90;;;;;;4998558;28;20515;-90
2021/04/23 08:32:00;;;;;;;7.70;5.43;;;;;;;;;;4998902;28;20446;-92
2021/04/23 08:34:27;;;;;;;9.97;5.47;;;;;;;;;;4997507;28;20955;-87
2021/04/23 08:36:53;;;;;;;15.00;6.37;;;16.20;83.50;;;;;;4994536;28;20437;-91
2021/04/23 08:39:20;;;;;;;8.30;5.83;;;;;;;;;;4990033;28;20859;-90
2021/04/23 08:41:47;;;;;;;13.30;5.10;;;17.10;82.10;;;;;;4998527;28;20437;-91
2021/04/23 08:44:14;;;;;;;12.03;5.63;;;17.70;64.30;;;;;;4998070;28;20445;-89
2021/04/23 08:46:40;;;;;;;7.23;5.03;;;;;;;;;;5000647;28;20492;-92
2021/04/23 08:49:08;;;;;;;11.57;5.60;;;16.50;86.10;;;;;;4998749;28;20912;-90
2021/04/23 08:51:35;;;;;;;10.30;6.20;;;16.60;64.00;;;;;;4998192;28;20468;-91
2021/04/23 08:54:03;;;;;;;8.00;5.27;;;17.30;63.80;;;;;;4998612;28;20500;-92
2021/04/23 08:56:29;;;;;;;12.70;6.00;;;17.40;82.30;;;;;;4999877;28;20449;-91
2021/04/23 08:58:56;;;;;;;7.53;5.00;;;;;;;;;;4997391;28;20860;-92
2021/04/23 09:01:23;;;;;;;13.80;5.40;;;17.50;78.30;;;;;;5002785;28;20468;-90
2021/04/23 09:03:50;;;;;;;9.93;5.77;;;;;;;;;;4998401;28;20453;-87
2021/04/23 09:06:20;;;;;;;8.03;5.47;;;18.20;61.30;;;;;;5001099;28;20436;-87
2021/04/23 09:09:00;;;;;;;8.27;6.23;;;18.20;59.10;;;;;;5001526;28;20473;-89
2021/04/23 09:11:30;;;;;;;7.37;4.03;;;18.10;64.10;;;;;;4999238;28;20483;-91
2021/04/23 09:13:58;;;;;;;9.20;4.97;;;16.90;62.70;;;;;;4998844;28;20488;-92
2021/04/23 09:16:46;;;;;;;9.30;6.13;;;19.90;70.50;;;;;;5000016;28;20500;-90
2021/04/23 09:19:20;;;;;;;9.03;5.60;;;17.90;57.30;;;;;;5002022;28;20445;-89
2021/04/23 09:21:56;;;;;;;12.77;6.23;;;18.00;60.00;;;;;;5002045;28;20460;-90
2021/04/23 09:24:27;;;;;;;7.97;4.80;;;17.40;57.00;;;;;;5001869;28;20899;-90
2021/04/23 09:26:54;;;;;;;7.50;4.80;;;;;;;;;;4999994;28;20843;-93
2021/04/23 09:29:28;;;;;;;8.13;4.50;;;17.20;59.80;;;;;;4999959;28;20438;-90
2021/04/23 09:32:09;;;;;;;9.60;4.87;;;17.70;91.70;;;;;;5000766;28;20456;-91
2021/04/23 09:34:46;;;;;;;8.53;5.47;;;17.90;58.80;;;;;;5001380;28;20453;-89
2021/04/23 09:37:12;;;;;;;9.83;5.00;;;17.70;79.40;;;;;;4996582;28;21053;-91
2021/04/23 09:39:39;;;;;;;7.97;5.03;;;;;;;;;;4993968;28;21015;-88
2021/04/23 09:42:09;;;;;;;12.33;5.87;;;17.00;56.90;;;;;;4998360;28;20477;-92
2021/04/23 09:44:37;;;;;;;7.83;5.33;;;17.30;57.90;;;;;;4996986;28;20499;-89
2021/04/23 09:47:13;;;;;;;6.90;5.00;;;18.00;56.60;;;;;;4998012;28;20839;-91
2021/04/23 09:49:43;;;;;;;8.40;5.07;;;18.10;57.50;;;;;;5005301;28;20444;-88
2021/04/23 09:52:11;;;;;;;9.50;5.20;;;16.70;57.40;;;;;;5017660;28;20441;-87
2021/04/23 09:54:38;;;;;;;8.97;5.13;;;17.70;59.60;;;;;;5014125;28;20463;-90
2021/04/23 09:57:16;;;;;;;10.33;5.50;;;17.00;57.00;;;;;;5019083;28;20928;-92
2021/04/23 09:59:54;;;;;;;7.67;5.63;;;17.40;78.10;;;;;;5013578;28;20826;-92
2021/04/23 10:02:26;;;;;;;9.97;6.40;;;17.70;90.40;;;;;;5013677;28;20456;-93
2021/04/23 10:04:53;;;;;;;9.23;4.70;;;18.40;56.40;;;;;;5016068;28;20448;-88
2021/04/23 10:07:22;;;;;;;10.67;5.47;;;19.30;56.20;;;;;;5016560;28;20508;-91
2021/04/23 10:09:54;;;;;;;9.50;4.70;;;18.50;54.90;;;;;;5014877;28;20476;-92
2021/04/23 10:12:42;;;;;;;10.77;5.60;;;19.10;56.40;;;;;;5016000;28;20492;-88
2021/04/23 10:15:15;;;;;;;11.77;5.20;;;19.10;56.00;;;;;;5016939;28;20488;-91
2021/04/23 10:17:44;;;;;;;9.90;5.90;;;17.90;52.40;;;;;;5013950;28;20923;-87
2021/04/23 10:20:12;;;;;;;10.73;6.23;;;18.70;51.90;;;;;;5001708;28;20457;-91
2021/04/23 10:22:40;;;;;;;7.30;6.20;;;17.40;53.70;;;;;;4995667;28;20500;-92
2021/04/23 10:25:08;;;;;;;13.00;6.50;;;17.10;54.10;;;;;;4994596;28;20803;-92
2021/04/23 10:27:35;;;;;;;7.93;6.40;;;17.60;92.40;;;;;;4998525;28;20458;-92
2021/04/23 10:30:06;;;;;;;9.70;6.27;;;18.10;93.50;;;;;;4993943;28;20455;-93
2021/04/23 10:32:33;;;;;;;7.47;5.53;;;;;;;;;;4998752;28;20603;-90
2021/04/23 10:35:00;;;;;;;7.70;5.70;;;17.30;54.30;;;;;;4999306;28;20453;-90
2021/04/23 10:37:27;;;;;;;11.10;5.97;;;;;;;;;;4999919;28;20478;-90
2021/04/23 10:39:54;;;;;;;11.00;6.03;;;17.40;57.60;;;;;;4999319;28;20464;-93
2021/04/23 10:42:39;;;;;;;9.00;5.60;;;18.60;92.80;;;;;;5000999;28;20449;-92
2021/04/23 10:45:18;;;;;;;10.00;6.37;;;18.40;54.70;;;;;;5007372;28;20449;-88
2021/04/23 10:47:44;;;;;;;7.83;5.50;;;;;;;;;;5019479;28;20440;-92
2021/04/23 10:50:13;;;;;;;7.43;5.30;;;17.50;53.60;;;;;;5020788;28;20909;-90
2021/04/23 10:52:58;;;;;;;7.87;4.50;;;18.80;54.50;;;;;;5017947;28;20480;-91
2021/04/23 10:55:38;;;;;;;10.97;5.60;;;18.80;51.30;;;;;;5018326;28;20437;-94
2021/04/23 10:58:04;;;;;;;8.43;5.20;;;;;;;;;;5014347;28;20467;-87
2021/04/23 11:00:33;;;;;;;8.80;4.70;;;18.90;49.50;;;;;;5018738;28;20522;-89
2021/04/23 11:03:26;;;;;;;8.33;4.80;;;19.40;49.40;;;;;;5014048;28;20456;-93
2021/04/23 11:05:56;;;;;;;9.53;4.83;;;18.60;79.60;;;;;;5017570;28;20451;-92
2021/04/23 11:08:23;;;;;;;5.53;4.23;;;;;;;;;;5017078;28;20481;-93
2021/04/23 11:11:12;;;;;;;7.73;4.77;;;18.50;71.90;;;;;;5017413;28;20444;-93
2021/04/23 11:13:40;;;;;;;10.33;4.93;;;18.90;48.10;;;;;;5016782;28;20507;-93
2021/04/23 11:16:28;;;;;;;6.77;4.90;;;18.60;49.90;;;;;;5015837;28;20484;-90
2021/04/23 11:18:56;;;;;;;8.73;4.50;;;18.30;48.00;;;;;;5020406;28;20450;-91
2021/04/23 11:21:40;;;;;;;5.87;4.70;;;19.10;49.90;;;;;;5014916;28;20907;-91
2021/04/23 11:24:11;;;;;;;12.73;5.77;;;19.80;53.00;;;;;;5019035;28;20448;-92
2021/04/23 11:27:04;;;;;;;10.30;5.70;;;18.90;53.00;;;;;;5020734;28;20448;-92
2021/04/23 11:29:32;;;;;;;6.93;5.10;;;18.80;49.10;;;;;;5019487;28;20490;-93
2021/04/23 11:32:13;;;;;;;6.60;4.60;;;17.70;51.90;;;;;;5022238;28;20716;-93
2021/04/23 11:34:41;;;;;;;7.87;4.30;;;18.40;48.70;;;;;;5024140;28;20547;-90
2021/04/23 11:37:11;;;;;;;7.43;4.97;;;18.80;82.20;;;;;;5023595;28;20467;-92
2021/04/23 11:39:44;;;;;;;12.00;4.50;;;19.10;48.50;;;;;;5024672;28;20455;-93
2021/04/23 11:42:19;;;;;;;8.77;4.50;;;19.50;63.20;;;;;;5023996;28;20445;-88
2021/04/23 11:44:49;;;;;;;8.90;5.00;;;19.90;47.40;;;;;;5030787;28;20454;-91
2021/04/23 11:47:18;;;;;;;6.47;4.47;;;18.90;46.80;;;;;;5021200;28;20566;-91
2021/04/23 11:49:44;;;;;;;6.80;4.20;;;;;;;;;;5026647;28;20448;-93
2021/04/23 11:52:14;;;;;;;7.80;4.50;;;19.30;50.60;;;;;;5028566;28;20432;-90
2021/04/23 11:54:43;;;;;;;8.30;5.07;;;19.30;49.40;;;;;;5027458;28;20440;-93
2021/04/23 11:57:12;;;;;;;6.30;4.70;;;19.80;78.90;;;;;;5024474;28;20927;-92
2021/04/23 11:59:57;;;;;;;9.80;4.43;;;19.90;68.50;;;;;;5022787;28;20444;-92
2021/04/23 12:02:43;;;;;;;5.17;3.70;;;20.10;50.00;;;;;;5023059;28;20451;-92
2021/04/23 12:05:28;;;;;;;7.13;4.70;;;19.20;46.60;;;;;;5020142;28;20456;-89
2021/04/23 12:07:56;;;;;;;7.00;4.77;;;19.00;46.60;;;;;;5020414;28;20490;-90
2021/04/23 12:10:27;;;;;;;13.17;5.50;;;18.90;48.20;;;;;;5017907;28;20449;-90
2021/04/23 12:12:54;;;;;;;11.23;5.00;;;;;;;;;;5016086;28;20495;-91
2021/04/23 12:15:24;;;;;;;6.50;4.43;;;19.60;48.60;;;;;;5014075;28;20959;-87
2021/04/23 12:17:51;;;;;;;9.77;5.03;;;20.00;57.80;;;;;;5010186;28;20449;-88
2021/04/23 12:20:20;;;;;;;7.47;4.43;;;19.10;73.20;;;;;;4996971;28;20532;-91
2021/04/23 12:22:47;;;;;;;8.87;4.20;;;19.00;45.40;;;;;;4996959;28;20464;-90
2021/04/23 12:25:21;;;;;;;6.93;4.90;;;19.10;49.80;;;;;;4992010;28;20444;-90
2021/04/23 12:27:48;;;;;;;9.80;5.67;;;;;;;;;;4997145;28;20453;-92
2021/04/23 12:30:29;;;;;;;6.90;4.73;;;19.10;69.30;;;;;;4997056;28;20457;-92
2021/04/23 12:32:56;;;;;;;6.10;4.73;;;19.00;74.60;;;;;;4997085;28;20497;-89
2021/04/23 12:35:34;;;;;;;7.70;4.80;;;18.30;45.70;;;;;;4997523;28;20536;-90
2021/04/23 12:38:01;;;;;;;8.80;4.90;;;;;;;;;;4996410;28;20971;-92
2021/04/23 12:40:33;;;;;;;8.90;4.60;;;19.80;45.30;;;;;;4996555;28;20460;-89
2021/04/23 12:43:00;;;;;;;7.80;4.70;;;;;;;;;;4996495;28;20574;-87
2021/04/23 12:45:28;;;;;;;6.53;5.00;;;;;;;;;;4994083;28;20460;-86
2021/04/23 12:47:54;;;;;;;6.50;4.03;;;19.70;70.70;;;;;;4992536;28;20545;-89
2021/04/23 12:50:31;;;;;;;14.93;4.90;;;20.10;47.40;;;;;;4996534;28;20454;-88
2021/04/23 12:52:57;;;;;;;12.23;6.27;;;;;;;;;;4995391;28;20484;-86
2021/04/23 12:55:24;;;;;;;7.40;5.40;;;;;;;;;;4997074;28;20456;-87
2021/04/23 12:57:51;;;;;;;10.17;5.13;;;19.60;44.60;;;;;;4996558;28;20453;-87
2021/04/23 13:00:18;;;;;;;7.63;4.60;;;21.30;47.10;;;;;;4996431;28;20470;-90
2021/04/23 13:02:46;;;;;;;7.53;4.90;;;20.20;45.70;;;;;;4995907;28;20473;-89
2021/04/23 13:05:15;;;;;;;9.13;4.37;;;19.80;45.90;;;;;;4997753;28;20457;-92
2021/04/23 13:07:51;;;;;;;6.77;4.90;;;20.40;67.10;;;;;;4998225;28;20528;-90
2021/04/23 13:10:21;;;;;;;8.10;4.20;;;21.00;45.40;;;;;;4999886;28;20552;-91
2021/04/23 13:12:48;;;;;;;7.37;3.50;;;;;;;;;;5000983;28;20484;-91
2021/04/23 13:15:28;;;;;;;6.50;3.70;;;20.10;42.40;;;;;;4999051;28;20477;-92
2021/04/23 13:17:58;;;;;;;5.90;4.10;;;20.20;54.80;;;;;;5004444;28;20461;-89
2021/04/23 13:20:26;;;;;;;6.97;4.73;;;19.50;41.70;;;;;;5008841;28;20917;-90
2021/04/23 13:22:54;;;;;;;4.63;3.87;;;19.40;41.70;;;;;;5005405;28;20475;-90
2021/04/23 13:25:29;;;;;;;6.37;4.40;;;19.50;44.10;;;;;;5003056;28;20445;-91
2021/04/23 13:28:10;;;;;;;7.30;4.30;;;20.10;42.20;;;;;;4999797;28;20459;-90
2021/04/23 13:30:40;;;;;;;11.23;3.93;;;20.10;42.80;;;;;;4995958;28;20871;-91
2021/04/23 13:33:08;;;;;;;4.33;3.80;;;20.00;40.80;;;;;;5000263;28;20563;-93
2021/04/23 13:35:40;;;;;;;5.20;3.33;;;20.00;49.60;;;;;;4999454;28;20464;-90
2021/04/23 13:38:23;;;;;;;9.33;3.77;;;19.30;56.20;;;;;;4999628;28;20453;-90
2021/04/23 13:40:51;;;;;;;6.23;4.13;;;19.50;41.00;;;;;;4997360;28;20625;-91